Impacts METAR Board
IDs:

KHYI - San Marcos Muni, TX, US

Updated at: 1300 UTC 13 Dec 2019
Potential Impact None Slight Moderate High
Time 13/01Z 13/02Z 13/03Z 13/04Z 13/05Z 13/06Z 13/07Z 13/08Z 13/09Z 13/10Z 13/11Z 13/12Z 13/13Z
Temp54 52 50 47 45 43 41 42 42 41 41 41 40
Dewpt46 46 46 44 42 41 39 40 40 40 39 39 38
Altim30.11 30.11 30.10 30.10 30.08 30.07 30.05 30.03 30.02 30.00 29.99 29.98 29.97
VIS10 10 10 10 10 10 10 10 10 10 10 10 10
CIG-- -- -- -- -- -- -- -- -- -- -- -- --
CoverCLRCLRCLRCLRCLRCLRCLRCLRCLRCLRCLRCLRCLR
FltCatVFRVFRVFRVFRVFRVFRVFRVFRVFRVFRVFRVFRVFR
WX--------------------------
WDir2102301703000230220230220210240170180
WSpd5 5 6 5 0 6 4 5 5 5 3 3 3
WGst-- -- -- -- -- -- -- -- -- -- -- -- --
Raw hourly METARs
KHYI 130056Z 21005KT 10SM CLR 12/08 A3011 RMK AO2 SLP196 T01220078
KHYI 130156Z AUTO 23005KT 10SM CLR 11/08 A3011 RMK AO2 SLP195 T01110078
KHYI 130256Z AUTO 17006KT 10SM CLR 10/08 A3010 RMK AO2 SLP189 T01000078 58006
KHYI 130356Z AUTO 30005KT 10SM CLR 08/07 A3010 RMK AO2 SLP191 T00830067
KHYI 130456Z AUTO 00000KT 10SM CLR 07/06 A3008 RMK AO2 SLP185 T00720056
KHYI 130556Z AUTO 23006KT 10SM CLR 06/05 A3007 RMK AO2 SLP181 T00610050 10133 20056 401721006 58007
KHYI 130656Z AUTO 22004KT 10SM CLR 05/04 A3005 RMK AO2 SLP175 T00500039
KHYI 130756Z AUTO 23005KT 10SM CLR 06/04 A3003 RMK AO2 SLP168 T00560044
KHYI 130856Z AUTO 22005KT 10SM CLR 06/04 A3002 RMK AO2 SLP163 T00560044 56018
KHYI 130956Z AUTO 21005KT 10SM CLR 05/04 A3000 RMK AO2 SLP155 T00500044
KHYI 131056Z AUTO 24003KT 10SM CLR 05/04 A2999 RMK AO2 SLP153 T00500039
KHYI 131156Z AUTO 17003KT 10SM CLR 05/04 A2998 RMK AO2 SLP147 T00500039 10061 20039 56014
KHYI 131256Z 18003KT 10SM CLR 04/03 A2997 RMK AO2 SLP147 T00440033



Page loaded:  13:50 UTC  |   05:50 AM Pacific  |   06:50 AM Mountain  |   07:50 AM Central  |   08:50 AM Eastern

 

ADVISORIES

FORECASTS

FORECASTS

OBSERVATIONS

USER TOOLS

ABOUT US